Time;durP1;ratioP1;P1;durP2;ratioP2;P2;SDS_P1;SDS_P2;PMS_P1;PMS_P2;Temp;Humidity;BMP_temperature;BMP_pressure;BME280_temperature;BME280_humidity;BME280_pressure;Samples;Min_cycle;Max_cycle;Signal;HPM_P1;HPM_P2
2022/08/07 00:01:12;;;;;;;10.43;7.72;;;;;;;22.50;59.91;98981.34;4889483;29;20043;-92
2022/08/07 00:03:38;;;;;;;11.38;7.32;;;;;;;22.37;59.72;98968.88;4892282;29;20088;-92
2022/08/07 00:06:03;;;;;;;7.95;6.80;;;;;;;22.40;60.09;98977.19;4898483;29;20029;-92
2022/08/07 00:08:29;;;;;;;10.52;7.00;;;;;;;22.26;60.12;98965.09;4899983;29;20032;-92
2022/08/07 00:10:54;;;;;;;10.88;7.40;;;;;;;22.30;60.34;98971.47;4901890;29;20522;-92
2022/08/07 00:13:20;;;;;;;13.77;7.60;;;;;;;22.32;60.44;98974.66;4892295;29;20028;-93
2022/08/07 00:15:46;;;;;;;11.68;6.95;;;;;;;22.38;60.31;98981.44;4917741;29;20034;-93
2022/08/07 00:18:12;;;;;;;10.98;7.93;;;;;;;22.33;60.35;98973.47;4901613;29;20440;-93
2022/08/07 00:20:40;;;;;;;9.43;7.75;;;;;;;22.32;60.44;98969.16;4885976;29;20032;-93
2022/08/07 00:23:06;;;;;;;12.25;8.20;;;;;;;22.27;60.39;98963.97;4905091;29;20028;-92
2022/08/07 00:25:32;;;;;;;10.23;7.43;;;;;;;22.34;60.97;98978.63;4885991;29;20507;-92
2022/08/07 00:27:57;;;;;;;9.80;7.20;;;;;;;22.36;60.54;98992.78;4891897;29;20039;-95
2022/08/07 00:30:23;;;;;;;10.52;6.85;;;;;;;22.23;60.98;98974.03;4894557;29;20073;-95
2022/08/07 00:32:49;;;;;;;11.90;6.80;;;;;;;22.16;60.92;98961.75;4892276;29;20468;-92
2022/08/07 00:35:17;;;;;;;9.65;7.10;;;;;;;22.06;61.11;98959.53;4886161;29;20159;-91
2022/08/07 00:37:42;;;;;;;9.27;6.75;;;;;;;22.14;60.25;98975.00;4922297;29;20024;-92
2022/08/07 00:40:08;;;;;;;10.73;6.78;;;;;;;22.13;61.00;98994.56;4904211;29;20118;-93
2022/08/07 00:42:34;;;;;;;9.25;7.00;;;;;;;22.00;61.09;98971.91;4920526;29;20027;-92
2022/08/07 00:44:59;;;;;;;7.65;6.57;;;;;;;22.02;61.06;98985.25;4891548;29;20039;-92
2022/08/07 00:47:25;;;;;;;8.93;6.90;;;;;;;22.02;61.04;98979.78;4908368;29;20019;-92
2022/08/07 00:49:50;;;;;;;7.65;6.43;;;;;;;22.06;60.54;98983.41;4906913;29;20027;-92
2022/08/07 00:52:16;;;;;;;9.55;6.40;;;;;;;22.05;61.29;98999.06;4892023;29;20024;-92
2022/08/07 00:54:41;;;;;;;7.70;6.22;;;;;;;21.84;60.73;98979.34;4907445;29;20019;-92
2022/08/07 00:57:08;;;;;;;15.80;6.68;;;;;;;21.89;61.29;98992.78;4918953;29;20028;-92
2022/08/07 00:59:35;;;;;;;10.77;6.75;;;;;;;21.71;61.76;98984.91;4922548;29;20020;-94
2022/08/07 01:02:01;;;;;;;12.30;6.20;;;;;;;21.74;62.10;99003.38;4907782;29;20118;-91
2022/08/07 01:04:27;;;;;;;11.27;6.70;;;;;;;21.69;61.65;99000.91;4906934;29;20024;-92
2022/08/07 01:06:52;;;;;;;9.15;6.35;;;;;;;21.65;61.84;98988.28;4908228;29;20528;-92
2022/08/07 01:09:18;;;;;;;8.52;6.63;;;;;;;21.58;62.21;98986.94;4888584;29;20031;-91
2022/08/07 01:11:43;;;;;;;8.60;6.18;;;;;;;21.63;62.92;98998.78;4873516;29;20039;-92
2022/08/07 01:14:09;;;;;;;8.82;7.10;;;;;;;21.54;62.68;98991.53;4902845;29;20027;-92
2022/08/07 01:16:35;;;;;;;10.60;7.10;;;;;;;21.52;62.81;98991.06;4892589;29;20055;-92
2022/08/07 01:19:01;;;;;;;12.02;7.15;;;;;;;21.44;63.18;98986.56;4888432;29;20458;-92
2022/08/07 01:21:26;;;;;;;11.32;7.38;;;;;;;21.31;63.44;98988.53;4888751;29;20024;-93
2022/08/07 01:23:52;;;;;;;11.30;7.65;;;;;;;21.18;64.16;98989.72;4906826;29;20043;-92
2022/08/07 01:26:19;;;;;;;10.45;7.30;;;;;;;21.23;64.01;98992.22;4907228;29;20036;-94
2022/08/07 01:28:49;;;;;;;12.02;7.50;;;;;;;21.26;63.91;99001.69;4905003;29;20028;-93
2022/08/07 01:31:15;;;;;;;10.85;8.52;;;;;;;21.14;64.42;98997.03;4889326;29;20021;-93
2022/08/07 01:33:40;;;;;;;10.15;7.47;;;;;;;21.14;64.42;99010.72;4906562;29;20490;-92
2022/08/07 01:36:08;;;;;;;13.30;8.32;;;;;;;21.08;64.08;99001.16;4906969;29;20030;-92
2022/08/07 01:38:33;;;;;;;13.85;8.75;;;;;;;21.14;64.65;99010.72;4907556;29;20161;-92
2022/08/07 01:41:00;;;;;;;25.45;8.15;;;;;;;20.99;64.21;98987.63;4891785;29;20055;-92
2022/08/07 01:43:28;;;;;;;17.48;7.68;;;;;;;21.15;64.73;99012.34;4919606;29;20024;-94
2022/08/07 01:45:54;;;;;;;11.07;7.30;;;;;;;21.03;64.45;98987.75;4903387;29;20028;-93
2022/08/07 01:48:20;;;;;;;8.73;7.28;;;;;;;21.06;64.52;98987.03;4888437;29;20475;-92
2022/08/07 01:50:48;;;;;;;10.75;7.40;;;;;;;21.13;63.76;98996.25;4888199;29;20024;-93
2022/08/07 01:53:14;;;;;;;10.15;7.55;;;;;;;21.07;63.87;98997.63;4919856;29;20020;-92
2022/08/07 01:55:43;;;;;;;10.88;7.38;;;;;;;21.08;64.30;99012.13;4886920;29;20107;-94
2022/08/07 01:58:09;;;;;;;10.93;8.23;;;;;;;21.04;64.82;99006.53;4903841;29;20028;-93
2022/08/07 02:00:35;;;;;;;13.02;8.48;;;;;;;20.98;65.20;99008.72;4904492;29;20031;-93
2022/08/07 02:03:03;;;;;;;11.90;8.13;;;;;;;20.92;65.08;99006.59;4894337;29;20035;-93
2022/08/07 02:05:36;;;;;;;9.45;8.02;;;;;;;20.93;65.21;99008.16;4906512;29;20118;-93
2022/08/07 02:08:05;;;;;;;10.27;8.43;;;;;;;20.93;64.68;99010.91;4903814;29;20035;-92
2022/08/07 02:10:30;;;;;;;12.82;8.77;;;;;;;21.00;65.39;99019.34;4888249;29;20110;-93
2022/08/07 02:12:57;;;;;;;14.98;9.00;;;;;;;20.96;65.05;99019.22;4903456;29;20047;-93
2022/08/07 02:15:23;;;;;;;11.68;8.70;;;;;;;20.99;65.14;99017.72;4886974;29;20467;-93
2022/08/07 02:17:50;;;;;;;11.45;9.07;;;;;;;20.88;65.24;99002.97;4890867;29;20342;-92
2022/08/07 02:20:16;;;;;;;12.00;9.13;;;;;;;20.99;64.97;99010.31;4890736;29;20035;-92
2022/08/07 02:22:41;;;;;;;16.83;10.45;;;;;;;21.04;64.79;99013.94;4922041;29;20023;-93
2022/08/07 02:25:08;;;;;;;12.40;9.90;;;;;;;21.13;64.88;99020.88;4905313;29;20051;-94
2022/08/07 02:27:34;;;;;;;15.38;10.18;;;;;;;21.06;64.78;99006.97;4906255;29;20103;-93
2022/08/07 02:30:00;;;;;;;14.27;9.50;;;;;;;21.06;64.83;99003.44;4906109;29;20036;-92
2022/08/07 02:32:25;;;;;;;14.30;9.18;;;;;;;21.02;64.50;99013.50;4891098;29;20035;-92
2022/08/07 02:34:51;;;;;;;15.38;9.63;;;;;;;21.18;64.70;99030.78;4889802;29;20082;-93
2022/08/07 02:37:16;;;;;;;13.80;9.07;;;;;;;21.05;64.37;99010.88;4890442;29;20032;-93
2022/08/07 02:39:43;;;;;;;13.68;9.05;;;;;;;21.21;64.23;99032.84;4890312;29;20035;-93
2022/08/07 02:42:08;;;;;;;12.35;8.18;;;;;;;21.11;64.69;99025.13;4906185;29;20030;-93
2022/08/07 02:44:34;;;;;;;12.15;9.20;;;;;;;21.00;64.66;99005.66;4905378;29;20456;-93
2022/08/07 02:47:01;;;;;;;12.57;9.00;;;;;;;21.03;65.05;99017.84;4906258;29;20123;-93
2022/08/07 02:49:27;;;;;;;12.48;8.32;;;;;;;20.96;65.25;99012.97;4889532;29;20028;-94
2022/08/07 02:51:52;;;;;;;13.98;8.57;;;;;;;20.94;65.48;99013.31;4903650;29;20032;-92
2022/08/07 02:54:18;;;;;;;18.67;8.85;;;;;;;20.88;65.24;99019.38;4906067;29;20047;-93
2022/08/07 02:56:43;;;;;;;11.70;7.40;;;;;;;20.84;65.26;99015.75;4891382;29;20030;-93
2022/08/07 02:59:10;;;;;;;10.93;7.78;;;;;;;20.83;65.10;99012.19;4902550;29;20032;-93
2022/08/07 03:01:37;;;;;;;13.68;7.15;;;;;;;20.80;65.37;99015.63;4901958;29;20413;-94
2022/08/07 03:04:06;;;;;;;11.52;7.88;;;;;;;20.78;65.46;99026.13;4881903;29;20450;-92
2022/08/07 03:06:32;;;;;;;18.73;8.10;;;;;;;20.81;65.06;99030.88;4901660;29;20020;-92
2022/08/07 03:08:59;;;;;;;14.43;7.50;;;;;;;20.73;65.75;99027.16;4886449;29;20039;-93
2022/08/07 03:11:25;;;;;;;17.67;8.25;;;;;;;20.64;65.71;99015.53;4902621;29;20027;-93
2022/08/07 03:13:50;;;;;;;11.13;6.75;;;;;;;20.74;65.63;99030.69;4886720;29;20091;-93
2022/08/07 03:16:16;;;;;;;11.35;7.18;;;;;;;20.65;65.37;99022.59;4886678;29;20032;-93
2022/08/07 03:18:42;;;;;;;10.55;6.20;;;;;;;20.69;65.20;99039.13;4883150;29;20406;-94
2022/08/07 03:21:07;;;;;;;8.05;6.07;;;;;;;20.83;64.86;99041.50;4905258;29;20024;-93
2022/08/07 03:23:33;;;;;;;12.07;5.30;;;;;;;20.74;64.46;99033.41;4890133;29;20042;-93
2022/08/07 03:25:59;;;;;;;6.72;4.40;;;;;;;20.79;64.72;99044.94;4921241;29;20459;-93
2022/08/07 03:28:24;;;;;;;12.80;5.00;;;;;;;20.72;64.91;99030.22;4893269;29;20032;-93
2022/08/07 03:31:17;;;;;;;6.55;4.97;;;;;;;20.71;65.54;99043.13;4886511;29;20501;-92
2022/08/07 03:33:36;;;;;;;9.02;5.68;;;;;;;20.64;65.39;99031.94;4917419;29;20038;-93
2022/08/07 03:36:02;;;;;;;8.55;6.10;;;;;;;20.65;65.40;99035.47;4902439;29;20032;-94
2022/08/07 03:38:27;;;;;;;8.73;6.22;;;;;;;20.56;65.38;99032.84;4886816;29;20043;-93
2022/08/07 03:40:53;;;;;;;8.63;5.97;;;;;;;20.58;65.68;99050.50;4917854;29;20535;-93
2022/08/07 03:43:18;;;;;;;7.75;6.00;;;;;;;20.34;66.23;99023.19;4917478;29;20020;-93
2022/08/07 03:45:44;;;;;;;7.88;5.43;;;;;;;20.27;66.28;99014.72;4886710;29;20170;-93
2022/08/07 03:48:09;;;;;;;10.02;5.60;;;;;;;20.42;66.09;99055.09;4890588;29;20036;-93
2022/08/07 03:50:35;;;;;;;6.47;5.28;;;;;;;20.44;66.20;99055.53;4901735;29;20035;-93
2022/08/07 03:53:01;;;;;;;8.10;5.45;;;;;;;20.35;66.07;99038.44;4901904;29;20475;-93
2022/08/07 03:55:28;;;;;;;9.25;5.97;;;;;;;20.31;66.20;99040.25;4902031;29;20040;-94
2022/08/07 03:57:53;;;;;;;10.52;5.75;;;;;;;20.31;66.41;99043.78;4917733;29;20032;-92
2022/08/07 04:00:19;;;;;;;8.23;6.07;;;;;;;20.30;66.52;99052.34;4917206;29;20095;-93
2022/08/07 04:02:44;;;;;;;8.02;5.68;;;;;;;20.38;66.17;99054.16;4890300;29;20032;-93
2022/08/07 04:05:10;;;;;;;10.18;6.72;;;;;;;20.34;66.83;99062.25;4920949;29;20028;-93
2022/08/07 04:07:35;;;;;;;8.30;6.10;;;;;;;20.43;66.66;99058.59;4890215;29;20094;-94
2022/08/07 04:10:02;;;;;;;7.15;5.47;;;;;;;20.55;66.24;99064.06;4920464;29;20023;-94
2022/08/07 04:12:28;;;;;;;8.00;6.07;;;;;;;20.53;65.78;99069.88;4890451;29;20080;-93
2022/08/07 04:14:54;;;;;;;8.68;6.10;;;;;;;20.58;65.54;99066.13;4890446;29;20051;-93
2022/08/07 04:17:19;;;;;;;8.15;6.35;;;;;;;20.62;65.57;99074.47;4889767;29;20032;-93
2022/08/07 04:19:45;;;;;;;7.10;5.93;;;;;;;20.63;64.96;99067.84;4892258;29;20027;-93
2022/08/07 04:22:10;;;;;;;8.52;5.90;;;;;;;20.69;65.06;99072.75;4909714;29;20038;-94
2022/08/07 04:24:36;;;;;;;7.30;5.70;;;;;;;20.84;64.93;99081.41;4893255;29;20052;-94
2022/08/07 04:27:03;;;;;;;7.88;6.35;;;;;;;20.82;64.82;99076.28;4892962;29;20024;-93
2022/08/07 04:29:28;;;;;;;6.90;5.57;;;;;;;20.85;64.92;99080.25;4909064;29;20028;-93
2022/08/07 04:31:55;;;;;;;7.28;5.65;;;;;;;20.78;65.13;99075.38;4908896;29;20031;-94
2022/08/07 04:34:21;;;;;;;10.18;6.20;;;;;;;20.97;64.89;99091.97;4909077;29;20031;-93
2022/08/07 04:36:47;;;;;;;7.97;5.75;;;;;;;20.91;64.50;99076.94;4923758;29;20023;-93
2022/08/07 04:39:12;;;;;;;7.43;5.45;;;;;;;21.04;64.54;99088.66;4924850;29;20086;-93
2022/08/07 04:41:38;;;;;;;7.82;5.95;;;;;;;21.07;63.99;99085.25;4924416;29;20046;-93
2022/08/07 04:44:03;;;;;;;9.40;5.85;;;;;;;21.19;64.20;99100.84;4905313;29;20028;-93
2022/08/07 04:46:47;;;;;;;8.05;6.45;;;;;;;21.23;63.99;99106.41;4904880;29;20191;-93
2022/08/07 04:49:22;;;;;;;6.47;5.65;;;;;;;21.27;64.07;99104.56;4921175;29;20055;-93
2022/08/07 04:52:25;;;;;;;7.65;5.85;;;;;;;21.32;63.45;99113.34;4922092;29;20498;-93
2022/08/07 04:55:22;;;;;;;8.93;5.45;;;;;;;21.44;63.56;99107.09;4896122;29;20123;-93
2022/08/07 04:57:54;;;;;;;8.43;6.05;;;;;;;21.43;63.49;99099.22;4926081;29;20023;-94
2022/08/07 05:00:34;;;;;;;7.30;6.32;;;;;;;21.46;63.02;99117.66;4924094;29;20035;-93
2022/08/07 05:03:25;;;;;;;6.72;5.30;;;;;;;21.55;63.02;99121.88;4924565;29;20027;-93
2022/08/07 05:05:58;;;;;;;7.25;6.15;;;;;;;21.62;62.89;99120.47;4923613;29;20031;-93
2022/08/07 05:08:32;;;;;;;8.20;5.90;;;;;;;21.55;62.57;99101.91;4920403;29;20031;-93
2022/08/07 05:11:28;;;;;;;6.68;5.72;;;;;;;21.59;62.39;99089.88;4904729;29;20060;-92
2022/08/07 05:13:59;;;;;;;8.63;6.60;;;;;;;21.82;62.37;99113.22;4912277;29;20127;-94
2022/08/07 05:16:25;;;;;;;9.15;6.57;;;;;;;21.87;62.45;99121.97;4904887;29;20123;-93
2022/08/07 05:18:53;;;;;;;8.27;6.22;;;;;;;21.90;62.29;99121.28;4888949;29;20076;-92
2022/08/07 05:21:20;;;;;;;11.02;6.90;;;;;;;21.94;62.11;99116.69;4904855;29;20126;-93
2022/08/07 05:23:56;;;;;;;9.50;6.90;;;;;;;21.95;61.34;99109.25;4904853;29;20036;-92
2022/08/07 05:26:24;;;;;;;8.90;6.95;;;;;;;22.02;61.61;99108.63;4904997;29;20071;-93
2022/08/07 05:28:51;;;;;;;8.90;6.80;;;;;;;22.24;61.34;99112.78;4901409;29;20039;-93
2022/08/07 05:31:21;;;;;;;9.25;7.30;;;;;;;22.25;60.74;99123.38;4891202;29;20028;-93
2022/08/07 05:33:48;;;;;;;12.07;7.47;;;;;;;22.35;60.78;99122.88;4907888;29;20087;-93
2022/08/07 05:36:14;;;;;;;9.32;7.25;;;;;;;22.42;59.93;99116.75;4892641;29;20089;-93
2022/08/07 05:38:39;;;;;;;11.20;7.32;;;;;;;22.66;60.78;99125.94;4888698;29;20127;-93
2022/08/07 05:41:05;;;;;;;12.48;8.35;;;;;;;22.67;59.18;99120.09;4887760;29;20028;-94
2022/08/07 05:43:30;;;;;;;11.75;8.32;;;;;;;22.74;59.34;99119.47;4872720;29;20115;-94
2022/08/07 05:45:56;;;;;;;12.77;8.68;;;;;;;22.84;59.94;99099.72;4872729;29;20035;-93
2022/08/07 05:48:21;;;;;;;13.52;9.48;;;;;;;23.09;59.26;99114.03;4873284;29;20111;-93
2022/08/07 05:50:47;;;;;;;10.82;8.73;;;;;;;23.23;58.31;99127.28;4872644;29;20032;-94
2022/08/07 05:53:12;;;;;;;15.95;9.15;;;;;;;23.33;58.05;99128.69;4872794;29;20410;-95
2022/08/07 05:55:38;;;;;;;12.00;9.27;;;;;;;23.38;57.75;99131.13;4872576;29;20510;-93
2022/08/07 05:58:04;;;;;;;12.05;9.75;;;;;;;23.44;57.61;99131.66;4871879;29;20190;-92
2022/08/07 06:00:30;;;;;;;11.80;9.18;;;;;;;23.59;57.31;99126.09;4888027;29;20058;-92
2022/08/07 06:02:56;;;;;;;13.68;9.90;;;;;;;23.63;57.06;99136.34;4872359;29;20060;-93
2022/08/07 06:05:25;;;;;;;12.50;9.80;;;;;;;23.71;56.62;99125.13;4888033;29;20032;-93
2022/08/07 06:07:50;;;;;;;11.90;8.40;;;;;;;23.81;56.81;99126.53;4872810;29;20032;-93
2022/08/07 06:10:16;;;;;;;11.10;8.60;;;;;;;23.86;56.41;99128.97;4872439;29;20039;-92
2022/08/07 06:12:41;;;;;;;11.38;8.18;;;;;;;23.93;56.53;99129.13;4872154;29;20059;-93
2022/08/07 06:15:10;;;;;;;16.83;9.63;;;;;;;24.10;56.03;99135.34;4872901;29;20496;-93
2022/08/07 06:17:35;;;;;;;11.02;8.23;;;;;;;24.28;55.37;99121.88;4871949;29;20028;-92
2022/08/07 06:20:01;;;;;;;9.98;7.75;;;;;;;24.50;54.67;99128.56;4872069;29;20506;-92
2022/08/07 06:22:26;;;;;;;12.45;7.60;;;;;;;24.60;54.73;99128.75;4903136;29;20468;-93
2022/08/07 06:24:52;;;;;;;10.25;6.32;;;;;;;24.66;54.42;99131.19;4887430;29;20119;-93
2022/08/07 06:27:21;;;;;;;10.60;6.00;;;;;;;24.80;53.99;99134.19;4888785;29;20036;-93
2022/08/07 06:29:46;;;;;;;7.93;5.47;;;;;;;24.84;53.39;99128.72;4892275;29;20432;-93
2022/08/07 06:32:12;;;;;;;10.15;5.80;;;;;;;25.09;52.89;99146.41;4922844;29;20115;-93
2022/08/07 06:34:37;;;;;;;8.68;5.93;;;;;;;25.20;52.74;99141.88;4907112;29;20027;-93
2022/08/07 06:37:03;;;;;;;6.82;4.80;;;;;;;25.35;52.70;99131.81;4907234;29;20038;-93
2022/08/07 06:39:30;;;;;;;6.45;5.10;;;;;;;25.51;52.50;99142.69;4891928;29;20032;-93
2022/08/07 06:42:07;;;;;;;7.93;4.80;;;;;;;25.60;52.02;99148.69;4907155;29;20075;-94
2022/08/07 06:44:33;;;;;;;6.28;4.32;;;;;;;25.74;51.48;99145.31;4917341;29;20059;-93
2022/08/07 06:46:59;;;;;;;5.90;4.70;;;;;;;25.92;51.62;99161.28;4918221;29;20042;-92
2022/08/07 06:49:24;;;;;;;7.65;5.45;;;;;;;25.98;51.32;99146.81;4902885;29;20091;-96
2022/08/07 06:51:51;;;;;;;9.48;5.55;;;;;;;26.12;51.03;99148.91;4919526;29;20043;-93
2022/08/07 06:54:16;;;;;;;6.18;4.32;;;;;;;26.17;50.38;99140.28;4903345;29;20063;-92
2022/08/07 06:56:43;;;;;;;9.05;6.65;;;;;;;26.31;50.58;99153.41;4919346;29;20024;-93
2022/08/07 06:59:38;;;;;;;7.35;4.50;;;;;;;26.41;49.74;99138.13;4888089;29;20123;-91
2022/08/07 07:02:05;;;;;;;5.47;4.32;;;;;;;26.58;49.80;99151.34;4905749;29;20079;-92
2022/08/07 07:04:30;;;;;;;6.57;4.75;;;;;;;26.50;49.91;99135.06;4886676;29;20040;-91
2022/08/07 07:06:56;;;;;;;5.82;4.22;;;;;;;26.67;48.79;99145.50;4903495;29;20032;-94
2022/08/07 07:09:26;;;;;;;7.82;4.80;;;;;;;26.83;48.07;99150.72;4918646;29;20380;-95
2022/08/07 07:12:00;;;;;;;8.10;4.10;;;;;;;26.97;47.43;99164.66;4888513;29;20036;-93
2022/08/07 07:14:28;;;;;;;5.50;4.07;;;;;;;26.92;47.77;99150.41;4919393;29;20028;-93
2022/08/07 07:16:55;;;;;;;6.95;4.10;;;;;;;26.89;47.85;99149.19;4903242;29;20419;-94
2022/08/07 07:19:24;;;;;;;4.80;4.00;;;;;;;27.19;47.24;99159.28;4918404;29;20086;-92
2022/08/07 07:21:51;;;;;;;5.10;3.85;;;;;;;27.24;46.57;99153.41;4903875;29;20483;-92
2022/08/07 07:24:17;;;;;;;5.35;3.78;;;;;;;27.16;45.84;99133.19;4905163;29;20048;-93
2022/08/07 07:26:43;;;;;;;5.13;4.22;;;;;;;27.38;46.17;99152.69;4891049;29;20039;-92
2022/08/07 07:29:11;;;;;;;6.88;3.83;;;;;;;27.32;44.94;99140.41;4889764;29;20522;-95
2022/08/07 07:31:39;;;;;;;3.95;3.05;;;;;;;27.53;40.94;99143.28;4889778;29;20035;-94
2022/08/07 07:34:09;;;;;;;4.03;2.78;;;;;;;27.70;42.00;99165.88;4898317;29;20028;-92
2022/08/07 07:36:36;;;;;;;4.00;3.10;;;;;;;27.72;43.28;99152.44;4902529;29;20028;-93
2022/08/07 07:39:03;;;;;;;4.60;2.70;;;;;;;27.78;39.46;99153.66;4886808;29;20035;-94
2022/08/07 07:41:28;;;;;;;3.83;2.65;;;;;;;27.75;40.73;99151.66;4886785;29;20036;-92
2022/08/07 07:43:53;;;;;;;3.72;2.75;;;;;;;27.90;41.52;99164.38;4917641;29;20039;-93
2022/08/07 07:46:21;;;;;;;5.28;3.25;;;;;;;27.85;42.46;99152.88;4902116;29;20131;-92
2022/08/07 07:48:47;;;;;;;3.92;2.97;;;;;;;27.92;42.32;99153.72;4917494;29;20111;-93
2022/08/07 07:51:13;;;;;;;4.47;3.40;;;;;;;28.00;41.38;99144.25;4902009;29;20024;-94
2022/08/07 07:53:42;;;;;;;4.50;3.20;;;;;;;28.13;41.25;99147.44;4895120;29;20047;-93
2022/08/07 07:56:07;;;;;;;4.07;3.22;;;;;;;28.41;41.34;99168.06;4906641;29;20111;-94
2022/08/07 07:58:34;;;;;;;4.63;3.30;;;;;;;28.37;40.53;99140.38;4889790;29;20028;-93
2022/08/07 08:01:00;;;;;;;4.22;3.20;;;;;;;28.42;40.83;99145.50;4907187;29;20795;-93
2022/08/07 08:03:25;;;;;;;4.82;3.33;;;;;;;28.62;40.99;99147.94;4906164;29;20059;-93
2022/08/07 08:05:51;;;;;;;4.40;3.35;;;;;;;28.61;40.84;99155.41;4890272;29;20039;-94
2022/08/07 08:08:16;;;;;;;5.75;3.60;;;;;;;28.76;39.02;99149.88;4921855;29;20032;-94
2022/08/07 08:10:42;;;;;;;5.35;3.30;;;;;;;28.88;40.20;99159.78;4905772;29;20028;-93
2022/08/07 08:13:08;;;;;;;4.30;3.35;;;;;;;28.85;39.73;99158.59;4905652;29;20036;-96
2022/08/07 08:15:36;;;;;;;5.43;3.67;;;;;;;28.71;39.80;99139.22;4891177;29;20032;-95
2022/08/07 08:18:02;;;;;;;4.57;3.30;;;;;;;29.05;39.73;99164.50;4890027;29;20028;-93
2022/08/07 08:20:30;;;;;;;4.55;3.50;;;;;;;29.06;39.92;99143.13;4920683;29;20555;-94
2022/08/07 08:28:27;;;;;;;3.85;3.42;;;;;;;29.25;39.69;99139.94;4921484;29;20063;-95
2022/08/07 08:30:57;;;;;;;6.75;3.50;;;;;;;29.42;39.60;99136.28;4904975;29;20115;-94
2022/08/07 08:33:33;;;;;;;4.55;3.30;;;;;;;29.53;39.12;99143.78;4895086;29;20024;-95
2022/08/07 08:36:01;;;;;;;4.47;3.50;;;;;;;29.64;38.89;99135.44;4889932;29;20066;-94
2022/08/07 08:38:31;;;;;;;4.47;3.60;;;;;;;29.69;38.90;99143.34;4905282;29;20066;-94
2022/08/07 08:41:15;;;;;;;4.53;3.30;;;;;;;29.70;38.90;99150.47;4905642;29;20028;-93
2022/08/07 08:43:49;;;;;;;3.78;3.28;;;;;;;29.66;38.75;99133.06;4920905;29;20028;-93
2022/08/07 08:46:23;;;;;;;4.50;3.28;;;;;;;29.73;38.79;99138.59;4904651;29;20523;-94
2022/08/07 08:48:57;;;;;;;7.10;4.22;;;;;;;29.48;39.17;99133.13;4898242;29;20028;-93
2022/08/07 08:51:34;;;;;;;5.85;3.90;;;;;;;29.65;38.60;99137.00;4905388;29;20426;-96
2022/08/07 08:54:14;;;;;;;5.22;3.80;;;;;;;29.36;38.96;99121.25;4904546;29;20091;-93
2022/08/07 08:56:42;;;;;;;6.20;3.72;;;;;;;29.45;39.43;99118.09;4920421;29;20131;-94
2022/08/07 08:59:19;;;;;;;5.30;4.15;;;;;;;29.48;39.31;99136.69;4905284;29;20174;-93
2022/08/07 09:02:09;;;;;;;6.22;3.75;;;;;;;29.64;39.09;99129.91;4890222;29;20039;-92
2022/08/07 09:04:46;;;;;;;7.25;3.95;;;;;;;29.84;38.82;99121.88;4920117;29;20125;-93
2022/08/07 09:07:36;;;;;;;4.18;3.72;;;;;;;29.86;38.99;99136.91;4904420;29;20415;-93
2022/08/07 09:10:10;;;;;;;5.25;4.15;;;;;;;29.83;38.48;99121.09;4916538;29;20039;-94
2022/08/07 09:12:42;;;;;;;4.93;3.90;;;;;;;29.79;38.86;99112.00;4891010;29;20036;-93
2022/08/07 09:15:14;;;;;;;4.40;3.45;;;;;;;29.94;38.83;99129.34;4892505;29;20055;-94
2022/08/07 09:18:00;;;;;;;5.18;3.80;;;;;;;29.82;38.71;99111.16;4903900;29;20067;-95
2022/08/07 09:20:49;;;;;;;5.15;4.05;;;;;;;29.92;38.20;99112.31;4904318;29;20039;-94
2022/08/07 09:23:26;;;;;;;5.15;4.03;;;;;;;29.96;38.05;99107.53;4910044;29;20028;-96
2022/08/07 09:26:13;;;;;;;5.15;4.03;;;;;;;29.75;38.96;99130.66;4924058;29;20083;-96
2022/08/07 09:28:40;;;;;;;5.60;4.20;;;;;;;29.75;39.29;99109.22;4923863;29;20031;-93
2022/08/07 09:31:24;;;;;;;5.03;3.88;;;;;;;29.76;39.32;99118.34;4938631;29;20030;-93
2022/08/07 09:34:10;;;;;;;5.78;4.78;;;;;;;29.72;38.72;99118.38;4907781;29;20028;-94
2022/08/07 09:36:47;;;;;;;5.65;4.05;;;;;;;29.53;41.00;99147.38;4923506;29;20525;-95
2022/08/07 09:39:38;;;;;;;5.57;4.45;;;;;;;29.35;42.78;99147.44;4922738;29;20027;-94
2022/08/07 09:42:06;;;;;;;8.40;4.40;;;;;;;28.96;46.35;99133.63;4907142;29;20023;-95
2022/08/07 09:44:49;;;;;;;8.18;5.03;;;;;;;28.32;51.56;99110.28;4907117;29;20415;-95
2022/08/07 09:47:35;;;;;;;7.20;5.00;;;;;;;28.45;52.69;99118.19;4922946;29;20607;-95
2022/08/07 09:50:06;;;;;;;9.00;5.50;;;;;;;28.48;54.48;99126.50;4929648;29;20044;-95
2022/08/07 09:52:48;;;;;;;6.13;4.88;;;;;;;28.24;53.24;99107.91;4922004;29;20024;-95
2022/08/07 09:55:22;;;;;;;7.20;5.45;;;;;;;28.09;55.49;99118.19;4923674;29;20034;-95
2022/08/07 09:58:37;;;;;;;7.57;5.82;;;;;;;27.86;55.79;99102.72;4891992;29;20023;-94
2022/08/07 10:01:17;;;;;;;10.77;5.20;;;;;;;27.65;58.82;99110.94;4936113;29;20697;-94
2022/08/07 10:03:55;;;;;;;8.88;5.82;;;;;;;27.64;58.59;99121.19;4893117;29;20099;-96
2022/08/07 10:06:39;;;;;;;8.23;5.60;;;;;;;27.50;58.23;99127.47;4923272;29;20406;-93
2022/08/07 10:09:15;;;;;;;6.53;5.22;;;;;;;27.63;57.64;99122.38;4922122;29;20027;-93
2022/08/07 10:11:56;;;;;;;7.88;5.47;;;;;;;27.61;57.65;99111.69;4921798;29;20486;-94
2022/08/07 10:14:47;;;;;;;6.57;5.03;;;;;;;27.55;55.14;99104.16;4922007;29;20032;-94
2022/08/07 10:17:13;;;;;;;8.18;4.97;;;;;;;27.78;54.63;99110.16;4920943;29;20267;-93
2022/08/07 10:19:50;;;;;;;6.40;5.30;;;;;;;27.91;51.74;99109.81;4922428;29;20102;-94
2022/08/07 10:22:34;;;;;;;9.27;5.53;;;;;;;28.05;53.31;99104.31;4939702;29;20031;-94
2022/08/07 10:25:19;;;;;;;6.50;5.55;;;;;;;27.99;53.80;99103.13;4922356;29;20047;-94
2022/08/07 10:28:04;;;;;;;8.32;5.88;;;;;;;28.12;53.46;99095.22;4922997;29;20078;-94
2022/08/07 10:31:16;;;;;;;7.43;5.50;;;;;;;28.01;55.09;99098.78;4924795;29;20493;-93
2022/08/07 10:33:54;;;;;;;8.75;5.65;;;;;;;27.94;53.82;99070.31;4922192;29;20019;-93
2022/08/07 10:36:50;;;;;;;10.90;5.55;;;;;;;28.05;54.20;99087.72;4922450;29;20187;-94
2022/08/07 10:39:26;;;;;;;8.43;6.03;;;;;;;27.99;53.81;99092.88;4923093;29;20034;-93
2022/08/07 10:42:09;;;;;;;8.43;5.82;;;;;;;27.79;54.16;99075.00;4923572;29;20023;-93
2022/08/07 10:45:07;;;;;;;11.48;6.15;;;;;;;27.79;56.17;99073.03;4893733;29;20024;-94
2022/08/07 10:47:35;;;;;;;12.75;6.28;;;;;;;28.15;54.57;99069.53;4935910;29;20040;-93
2022/08/07 10:50:16;;;;;;;7.38;5.43;;;;;;;28.53;51.11;99081.81;4922565;29;20023;-93
2022/08/07 10:52:51;;;;;;;9.35;6.47;;;;;;;28.73;50.43;99053.72;4923139;29;20118;-95
2022/08/07 10:55:25;;;;;;;10.32;6.70;;;;;;;29.01;48.06;99047.28;4891442;29;20055;-94
2022/08/07 10:58:23;;;;;;;13.70;6.78;;;;;;;29.47;46.76;99067.72;4892082;29;20028;-96
2022/08/07 11:01:09;;;;;;;10.27;6.60;;;;;;;29.56;47.38;99055.00;4922704;29;20024;-94
2022/08/07 11:03:44;;;;;;;13.68;7.35;;;;;;;29.67;45.31;99041.06;4922317;29;20122;-93
2022/08/07 11:06:13;;;;;;;13.07;8.43;;;;;;;29.81;44.44;99052.09;4907073;29;20066;-94
2022/08/07 11:09:08;;;;;;;10.18;7.75;;;;;;;30.07;42.88;99038.84;4922065;29;20030;-91
2022/08/07 11:11:46;;;;;;;12.32;9.32;;;;;;;30.48;42.54;99037.31;4907860;29;20042;-94
2022/08/07 11:14:25;;;;;;;13.20;8.70;;;;;;;30.37;43.36;99027.09;4907033;29;20431;-93
2022/08/07 11:17:06;;;;;;;10.48;7.72;;;;;;;30.34;42.80;99030.72;4892900;29;20070;-93
2022/08/07 11:19:43;;;;;;;9.98;6.78;;;;;;;30.56;42.03;99053.50;4891159;29;20031;-94
2022/08/07 11:22:32;;;;;;;8.55;6.63;;;;;;;30.55;41.64;99034.50;4921621;29;20036;-94
2022/08/07 11:24:59;;;;;;;6.35;4.55;;;;;;;30.58;37.80;99031.66;4938437;29;20056;-94
2022/08/07 11:27:37;;;;;;;5.95;4.05;;;;;;;30.60;35.61;99045.91;4921869;29;20047;-93
2022/08/07 11:30:06;;;;;;;5.30;3.65;;;;;;;30.28;35.04;99026.75;4920713;29;20031;-95
2022/08/07 11:32:39;;;;;;;5.20;3.70;;;;;;;30.54;34.72;99024.56;4890697;29;20035;-93
2022/08/07 11:35:10;;;;;;;5.47;3.40;;;;;;;30.74;34.14;99027.53;4906296;29;20024;-96
2022/08/07 11:38:06;;;;;;;7.80;5.50;;;;;;;30.91;34.79;99031.34;4903542;29;20039;-94
2022/08/07 11:40:34;;;;;;;4.05;3.20;;;;;;;30.89;33.84;99026.19;4903087;29;20035;-94
2022/08/07 11:43:12;;;;;;;4.43;3.60;;;;;;;31.27;33.82;99026.13;4902314;29;20040;-95
2022/08/07 11:46:04;;;;;;;6.03;3.53;;;;;;;31.55;33.19;99038.91;4871957;29;20059;-94
2022/08/07 11:48:40;;;;;;;4.35;3.22;;;;;;;31.50;32.07;99017.13;4902287;29;20028;-93
2022/08/07 11:51:45;;;;;;;4.53;3.00;;;;;;;31.60;31.91;99021.72;4902445;29;20024;-93